General Aviation Weather

Text Reports

Enter one or more of the following location identifiers separated by a space:

Zip Code, Four-Character ICAO or Three-Character IATA airport codes.

METAR - Aviation Routine Weather Report
KCGS - College Park, Maryland
Updated at 10:05 PM GMT on September 22, 2014 (6:05 PM EDT):
METAR KCGS 222205Z AUTO 33008KT 10SM CLR 20/06 A3008 RMK AO1
TAF - Terminal Area Forecast
KCGS - College Park, Maryland
Updated at 10:05 PM GMT on September 22, 2014 (6:05 PM EDT):
No TAF is currently available for this location.
Decoded:
No decoded TAF is available.
PIREP - Pilot Weather Report
KCGS - College Park, Maryland
Updated at 10:05 PM GMT on September 22, 2014 (6:05 PM EDT):
No PIREP is currently available for this location.
AIRMET - Airmens Meteorological Information
KCGS - College Park, Maryland
Updated at 10:05 PM GMT on September 22, 2014 (6:05 PM EDT):
No AIRMET is currently available for this location.
SIGMET - Significant Meteorological Information
KCGS - College Park, Maryland
Updated at 10:05 PM GMT on September 22, 2014 (6:05 PM EDT):
No SIGMET is currently available for this location.
NOTAM - Notice to Airmen
KCGS - College Park, Maryland
Updated at 10:05 PM GMT on September 22, 2014 (6:05 PM EDT):
No NOTAM is currently available for this location.
Forecast Area
KCGS - College Park, Maryland
Updated at 10:05 PM GMT on September 22, 2014 (6:05 PM EDT):
No NOTAM is currently available for this location.
Aviation Weather Maps